الصفحة الرئيسية
METAR-TAF:

METAR-TAF

مطار :

سندسفال-Härnösand, السويد

دائرة عرض: 62-32N, خط طول: 017-27E, ارتفاع: 4 متر

مراقبة الطقس الحالي

تاريخ ووقت الإصدار 32 دقيقة قبل الساعة 20:20UTC
رياح هادئة
درجة الحرارة 0°درجة مئوية
الرطوبة 93%
ضغط 1032 hPa
الرؤية: 2100 متر
ثلوج خفيفة,

METAR: ESNN 042020Z AUTO 00000KT 2100 -SN OVC010/// M00/M01 Q1032

زمن: 21:52 (20:52 UTC)

توقعات

تاريخ ووقت الإصدار 22 دقيقة قبل الساعة 20:30UTC
التوقعات صالحة من04 الساعة 21 UTC إلى 05 الساعة 02 UTC
ريح 1 عقدةمن اتجاهات متغيرة
الرؤية: 5000 متر
ملبد بالغيوم على ارتفاع 1000 قدم
ثلوج خفيفة
مؤقت
من 04 الساعة 21 UTC إلى 05 الساعة 02 UTC
الرؤية: 2000 متر
ملبد بالغيوم على ارتفاع 400 قدم
حبات ثلجية,

TAF: ESNN 042030Z 0421/0502 VRB01KT 5000 -SN OVC010 TEMPO 0421/0502 2000 SG OVC004

أرصاد الطقس والتوقعات من أكثر من 4000 مطار (تقارير الطقس للمطار METAR والتنبؤ بالطقس بالمطارTAF).

المحطات المتاحة هي النقط الصفراء والحمراء على الخريطة.

حرك المؤشر فوق النقطة لمعرفة اسم المحطة.

ثم انقر لمعرفة أرصاد وتوقعات الطقس.

لتغيير الخارطة: اضغط على الأزرار الخضراء مع رمز الصليب الأسود للتكبير. على الزر الأخضر مع شرطة للتصغير، أو على الأسهم الخضراء للخرائط المجاورة.


METAR-TAF: